Portada
METAR-TAF:

METAR-TAF

Aeroports :

Guwahati, Índia

latitud: 26-06-22N, longitud: 091-35-09E, altitud: 49 m

Observació

L'informe es va fer fa 34 minuts, a les 01:00 UTC
Vent calma
Temperatura 29°C
Humitat 84%
Pressió 1003 hPa
Visibilitat: 4000 m
Núvols disperses a una alçada de 1800 ft
Escasses núvols a una alçada de 2500 ft, Cumulonimbus.
Cel ennuvolat a una alçada de 10000 ft
boirina

METAR: VEGT 200100Z 00000KT 4000 BR SCT018 FEW025CB BKN100 29/26 Q1003 NOSIG

Hora: 07:04 (01:34 UTC)


TAF: manca

Observacions i pronòstics meteorològics de més de 4000 aeroports (METAR i TAF).

Les estacions disponibles són els punts grocs i vermells al mapa.

Posi el ratolí al punt desitjat per veure el nom de l'estació.

Feu clic per veure les observacions i els pronòstics meteorològics.

Per canviar el mapa: feu clic els botons verds amb una creu de color negre per apropar; al botó verd amb un guió per allunyar la imatge; o en les fletxes verdes per a mapes adjacents.


METAR-TAF: